sensor_id;sensor_type;location;lat;lon;timestamp;temperature;humidity
11826;DHT22;5970;48.094;11.496;2022-10-23T00:01:44;10.40;99.90
11826;DHT22;5970;48.094;11.496;2022-10-23T00:04:29;10.40;99.90
11826;DHT22;5970;48.094;11.496;2022-10-23T00:06:56;10.30;99.90
11826;DHT22;5970;48.094;11.496;2022-10-23T00:09:23;10.30;99.90
11826;DHT22;5970;48.094;11.496;2022-10-23T00:11:50;11.70;99.90
11826;DHT22;5970;48.094;11.496;2022-10-23T00:14:19;10.30;99.90
11826;DHT22;5970;48.094;11.496;2022-10-23T00:16:45;10.30;99.90
11826;DHT22;5970;48.094;11.496;2022-10-23T00:19:12;10.20;99.90
11826;DHT22;5970;48.094;11.496;2022-10-23T00:21:39;10.10;99.90
11826;DHT22;5970;48.094;11.496;2022-10-23T00:24:06;10.10;99.90
11826;DHT22;5970;48.094;11.496;2022-10-23T00:26:35;10.10;99.90
11826;DHT22;5970;48.094;11.496;2022-10-23T00:29:03;10.10;99.90
11826;DHT22;5970;48.094;11.496;2022-10-23T00:31:30;10.30;99.90
11826;DHT22;5970;48.094;11.496;2022-10-23T00:33:56;10.00;99.90
11826;DHT22;5970;48.094;11.496;2022-10-23T00:36:23;10.00;99.90
11826;DHT22;5970;48.094;11.496;2022-10-23T00:38:50;10.00;99.90
11826;DHT22;5970;48.094;11.496;2022-10-23T00:41:19;11.80;99.90
11826;DHT22;5970;48.094;11.496;2022-10-23T00:43:53;9.90;99.90
11826;DHT22;5970;48.094;11.496;2022-10-23T00:46:21;9.90;99.90
11826;DHT22;5970;48.094;11.496;2022-10-23T00:48:47;9.90;99.90
11826;DHT22;5970;48.094;11.496;2022-10-23T00:51:14;9.80;99.90
11826;DHT22;5970;48.094;11.496;2022-10-23T00:53:41;9.70;99.90
11826;DHT22;5970;48.094;11.496;2022-10-23T00:56:09;9.80;99.90
11826;DHT22;5970;48.094;11.496;2022-10-23T00:58:36;9.80;99.90
11826;DHT22;5970;48.094;11.496;2022-10-23T01:01:13;9.70;99.90
11826;DHT22;5970;48.094;11.496;2022-10-23T01:03:42;9.70;99.90
11826;DHT22;5970;48.094;11.496;2022-10-23T01:11:26;10.80;99.90
11826;DHT22;5970;48.094;11.496;2022-10-23T01:17:05;9.60;99.90
11826;DHT22;5970;48.094;11.496;2022-10-23T01:22:32;9.50;99.90
11826;DHT22;5970;48.094;11.496;2022-10-23T01:27:32;9.50;99.90
11826;DHT22;5970;48.094;11.496;2022-10-23T01:32:29;9.60;99.90
11826;DHT22;5970;48.094;11.496;2022-10-23T01:37:33;9.70;99.90
11826;DHT22;5970;48.094;11.496;2022-10-23T01:40:01;9.70;99.90
11826;DHT22;5970;48.094;11.496;2022-10-23T01:42:30;9.70;99.90
11826;DHT22;5970;48.094;11.496;2022-10-23T01:45:03;9.70;99.90
11826;DHT22;5970;48.094;11.496;2022-10-23T01:47:32;9.70;99.90
11826;DHT22;5970;48.094;11.496;2022-10-23T01:50:01;9.70;99.90
11826;DHT22;5970;48.094;11.496;2022-10-23T01:52:29;9.70;99.90
11826;DHT22;5970;48.094;11.496;2022-10-23T01:54:58;9.70;99.90
11826;DHT22;5970;48.094;11.496;2022-10-23T01:57:25;10.30;99.90
11826;DHT22;5970;48.094;11.496;2022-10-23T01:59:55;9.60;99.90
11826;DHT22;5970;48.094;11.496;2022-10-23T02:02:23;9.70;99.90
11826;DHT22;5970;48.094;11.496;2022-10-23T02:04:56;10.30;99.90
11826;DHT22;5970;48.094;11.496;2022-10-23T02:07:24;9.50;99.90
11826;DHT22;5970;48.094;11.496;2022-10-23T02:09:50;9.50;99.90
11826;DHT22;5970;48.094;11.496;2022-10-23T02:12:21;9.50;99.90
11826;DHT22;5970;48.094;11.496;2022-10-23T02:14:53;9.50;99.90
11826;DHT22;5970;48.094;11.496;2022-10-23T02:17:32;9.50;99.90
11826;DHT22;5970;48.094;11.496;2022-10-23T02:20:21;9.50;99.90
11826;DHT22;5970;48.094;11.496;2022-10-23T02:25:35;9.40;99.90
11826;DHT22;5970;48.094;11.496;2022-10-23T02:28:04;9.30;99.90
11826;DHT22;5970;48.094;11.496;2022-10-23T02:30:33;9.30;99.90
11826;DHT22;5970;48.094;11.496;2022-10-23T02:33:00;9.30;99.90
11826;DHT22;5970;48.094;11.496;2022-10-23T02:35:28;9.30;99.90
11826;DHT22;5970;48.094;11.496;2022-10-23T02:37:55;9.20;99.90
11826;DHT22;5970;48.094;11.496;2022-10-23T02:40:23;9.70;99.90
11826;DHT22;5970;48.094;11.496;2022-10-23T02:42:54;9.10;99.90
11826;DHT22;5970;48.094;11.496;2022-10-23T02:55:44;9.00;99.90
11826;DHT22;5970;48.094;11.496;2022-10-23T02:58:30;9.10;99.90
11826;DHT22;5970;48.094;11.496;2022-10-23T03:01:00;9.10;99.90
11826;DHT22;5970;48.094;11.496;2022-10-23T03:03:35;9.10;99.90
11826;DHT22;5970;48.094;11.496;2022-10-23T03:06:03;9.10;99.90
11826;DHT22;5970;48.094;11.496;2022-10-23T03:08:39;9.10;99.90
11826;DHT22;5970;48.094;11.496;2022-10-23T03:11:05;9.00;99.90
11826;DHT22;5970;48.094;11.496;2022-10-23T03:13:32;9.00;99.90
11826;DHT22;5970;48.094;11.496;2022-10-23T03:15:58;8.90;99.90
11826;DHT22;5970;48.094;11.496;2022-10-23T03:18:25;8.90;99.90
11826;DHT22;5970;48.094;11.496;2022-10-23T03:20:52;8.90;99.90
11826;DHT22;5970;48.094;11.496;2022-10-23T03:23:18;8.90;99.90
11826;DHT22;5970;48.094;11.496;2022-10-23T03:25:45;8.90;99.90
11826;DHT22;5970;48.094;11.496;2022-10-23T03:28:11;8.80;99.90
11826;DHT22;5970;48.094;11.496;2022-10-23T03:30:38;8.80;99.90
11826;DHT22;5970;48.094;11.496;2022-10-23T03:33:05;9.90;99.90
11826;DHT22;5970;48.094;11.496;2022-10-23T03:35:31;8.90;99.90
11826;DHT22;5970;48.094;11.496;2022-10-23T03:37:58;8.80;99.90
11826;DHT22;5970;48.094;11.496;2022-10-23T03:40:24;8.90;99.90
11826;DHT22;5970;48.094;11.496;2022-10-23T03:42:51;8.80;99.90
11826;DHT22;5970;48.094;11.496;2022-10-23T03:45:18;8.80;99.90
11826;DHT22;5970;48.094;11.496;2022-10-23T03:47:45;8.70;99.90
11826;DHT22;5970;48.094;11.496;2022-10-23T03:50:11;8.70;99.90
11826;DHT22;5970;48.094;11.496;2022-10-23T03:52:39;8.80;99.90
11826;DHT22;5970;48.094;11.496;2022-10-23T03:55:06;8.80;99.90
11826;DHT22;5970;48.094;11.496;2022-10-23T03:57:33;8.70;99.90
11826;DHT22;5970;48.094;11.496;2022-10-23T03:59:59;8.70;99.90
11826;DHT22;5970;48.094;11.496;2022-10-23T04:02:26;8.80;99.90
11826;DHT22;5970;48.094;11.496;2022-10-23T04:04:53;8.80;99.90
11826;DHT22;5970;48.094;11.496;2022-10-23T04:07:20;8.90;99.90
11826;DHT22;5970;48.094;11.496;2022-10-23T04:09:46;8.90;99.90
11826;DHT22;5970;48.094;11.496;2022-10-23T04:12:13;9.00;99.90
11826;DHT22;5970;48.094;11.496;2022-10-23T04:14:40;9.50;99.90
11826;DHT22;5970;48.094;11.496;2022-10-23T04:17:06;9.60;99.90
11826;DHT22;5970;48.094;11.496;2022-10-23T04:19:33;9.10;99.90
11826;DHT22;5970;48.094;11.496;2022-10-23T04:22:00;9.10;99.90
11826;DHT22;5970;48.094;11.496;2022-10-23T04:24:26;10.10;99.90
11826;DHT22;5970;48.094;11.496;2022-10-23T04:26:53;9.20;99.90
11826;DHT22;5970;48.094;11.496;2022-10-23T04:29:19;9.20;99.90
11826;DHT22;5970;48.094;11.496;2022-10-23T04:31:49;9.20;99.90
11826;DHT22;5970;48.094;11.496;2022-10-23T04:34:17;9.20;99.90
11826;DHT22;5970;48.094;11.496;2022-10-23T04:36:43;9.20;99.90
11826;DHT22;5970;48.094;11.496;2022-10-23T04:39:10;9.30;99.90
11826;DHT22;5970;48.094;11.496;2022-10-23T04:41:37;9.30;99.90
11826;DHT22;5970;48.094;11.496;2022-10-23T04:44:04;9.30;99.90
11826;DHT22;5970;48.094;11.496;2022-10-23T04:46:31;9.40;99.90
11826;DHT22;5970;48.094;11.496;2022-10-23T04:48:57;9.30;99.90
11826;DHT22;5970;48.094;11.496;2022-10-23T04:51:24;9.30;99.90
11826;DHT22;5970;48.094;11.496;2022-10-23T04:53:50;9.30;99.90
11826;DHT22;5970;48.094;11.496;2022-10-23T04:56:17;9.30;99.90
11826;DHT22;5970;48.094;11.496;2022-10-23T04:58:44;9.30;99.90
11826;DHT22;5970;48.094;11.496;2022-10-23T05:01:11;9.30;99.90
11826;DHT22;5970;48.094;11.496;2022-10-23T05:03:37;9.30;99.90
11826;DHT22;5970;48.094;11.496;2022-10-23T05:06:04;9.30;99.90
11826;DHT22;5970;48.094;11.496;2022-10-23T05:08:31;9.30;99.90
11826;DHT22;5970;48.094;11.496;2022-10-23T05:10:58;9.30;99.90
11826;DHT22;5970;48.094;11.496;2022-10-23T05:13:24;9.30;99.90
11826;DHT22;5970;48.094;11.496;2022-10-23T05:15:51;9.30;99.90
11826;DHT22;5970;48.094;11.496;2022-10-23T05:20:52;9.20;99.90
11826;DHT22;5970;48.094;11.496;2022-10-23T05:23:21;9.20;99.90
11826;DHT22;5970;48.094;11.496;2022-10-23T05:25:49;9.20;99.90
11826;DHT22;5970;48.094;11.496;2022-10-23T05:28:16;9.60;99.90
11826;DHT22;5970;48.094;11.496;2022-10-23T05:30:42;9.20;99.90
11826;DHT22;5970;48.094;11.496;2022-10-23T05:33:09;9.20;99.90
11826;DHT22;5970;48.094;11.496;2022-10-23T05:35:37;9.30;99.90
11826;DHT22;5970;48.094;11.496;2022-10-23T05:38:04;9.10;99.90
11826;DHT22;5970;48.094;11.496;2022-10-23T05:40:32;9.10;99.90
11826;DHT22;5970;48.094;11.496;2022-10-23T05:42:58;9.10;99.90
11826;DHT22;5970;48.094;11.496;2022-10-23T05:45:25;9.10;99.90
11826;DHT22;5970;48.094;11.496;2022-10-23T05:47:52;9.10;99.90
11826;DHT22;5970;48.094;11.496;2022-10-23T05:50:20;9.00;99.90
11826;DHT22;5970;48.094;11.496;2022-10-23T05:52:47;9.00;99.90
11826;DHT22;5970;48.094;11.496;2022-10-23T05:55:14;8.90;99.90
11826;DHT22;5970;48.094;11.496;2022-10-23T05:57:42;9.00;99.90
11826;DHT22;5970;48.094;11.496;2022-10-23T06:00:09;8.90;99.90
11826;DHT22;5970;48.094;11.496;2022-10-23T06:02:36;8.90;99.90
11826;DHT22;5970;48.094;11.496;2022-10-23T06:05:03;9.00;99.90
11826;DHT22;5970;48.094;11.496;2022-10-23T06:07:29;9.00;99.90
11826;DHT22;5970;48.094;11.496;2022-10-23T06:10:01;9.00;99.90
11826;DHT22;5970;48.094;11.496;2022-10-23T06:12:28;9.00;99.90
11826;DHT22;5970;48.094;11.496;2022-10-23T06:14:56;9.10;99.90
11826;DHT22;5970;48.094;11.496;2022-10-23T06:17:23;9.10;99.90
11826;DHT22;5970;48.094;11.496;2022-10-23T06:19:49;9.10;99.90
11826;DHT22;5970;48.094;11.496;2022-10-23T06:22:16;9.10;99.90
11826;DHT22;5970;48.094;11.496;2022-10-23T06:24:43;9.80;99.90
11826;DHT22;5970;48.094;11.496;2022-10-23T06:27:09;9.30;99.90
11826;DHT22;5970;48.094;11.496;2022-10-23T06:29:36;9.30;99.90
11826;DHT22;5970;48.094;11.496;2022-10-23T06:32:02;9.30;99.90
11826;DHT22;5970;48.094;11.496;2022-10-23T06:34:29;9.40;99.90
11826;DHT22;5970;48.094;11.496;2022-10-23T06:36:56;9.40;99.90
11826;DHT22;5970;48.094;11.496;2022-10-23T06:39:23;9.50;99.90
11826;DHT22;5970;48.094;11.496;2022-10-23T06:41:53;9.50;99.90
11826;DHT22;5970;48.094;11.496;2022-10-23T06:44:20;9.50;99.90
11826;DHT22;5970;48.094;11.496;2022-10-23T06:46:47;9.50;99.90
11826;DHT22;5970;48.094;11.496;2022-10-23T06:49:14;9.60;99.90
11826;DHT22;5970;48.094;11.496;2022-10-23T06:51:41;11.00;99.90
11826;DHT22;5970;48.094;11.496;2022-10-23T06:54:08;11.40;99.90
11826;DHT22;5970;48.094;11.496;2022-10-23T06:56:35;9.80;99.90
11826;DHT22;5970;48.094;11.496;2022-10-23T06:59:02;9.80;99.90
11826;DHT22;5970;48.094;11.496;2022-10-23T07:01:29;9.90;99.90
11826;DHT22;5970;48.094;11.496;2022-10-23T07:03:56;9.90;99.90
11826;DHT22;5970;48.094;11.496;2022-10-23T07:06:22;10.00;99.90
11826;DHT22;5970;48.094;11.496;2022-10-23T07:08:49;10.10;99.90
11826;DHT22;5970;48.094;11.496;2022-10-23T07:11:16;10.30;99.90
11826;DHT22;5970;48.094;11.496;2022-10-23T07:13:43;10.30;99.90
11826;DHT22;5970;48.094;11.496;2022-10-23T07:16:13;10.40;99.90
11826;DHT22;5970;48.094;11.496;2022-10-23T07:18:40;10.60;99.90
11826;DHT22;5970;48.094;11.496;2022-10-23T07:21:07;10.60;99.90
11826;DHT22;5970;48.094;11.496;2022-10-23T07:23:34;10.80;99.90
11826;DHT22;5970;48.094;11.496;2022-10-23T07:26:04;10.90;99.90
11826;DHT22;5970;48.094;11.496;2022-10-23T07:28:31;11.10;99.90
11826;DHT22;5970;48.094;11.496;2022-10-23T07:30:58;11.10;99.90
11826;DHT22;5970;48.094;11.496;2022-10-23T07:33:25;11.80;99.90
11826;DHT22;5970;48.094;11.496;2022-10-23T07:35:51;11.40;99.90
11826;DHT22;5970;48.094;11.496;2022-10-23T07:38:18;11.50;99.90
11826;DHT22;5970;48.094;11.496;2022-10-23T07:40:45;11.50;99.90
11826;DHT22;5970;48.094;11.496;2022-10-23T07:43:11;11.60;99.90
11826;DHT22;5970;48.094;11.496;2022-10-23T07:45:38;11.60;99.90
11826;DHT22;5970;48.094;11.496;2022-10-23T07:48:05;12.10;99.90
11826;DHT22;5970;48.094;11.496;2022-10-23T07:50:31;13.90;99.90
11826;DHT22;5970;48.094;11.496;2022-10-23T07:52:58;11.80;99.90
11826;DHT22;5970;48.094;11.496;2022-10-23T07:55:25;12.00;99.90
11826;DHT22;5970;48.094;11.496;2022-10-23T07:57:51;11.90;99.90
11826;DHT22;5970;48.094;11.496;2022-10-23T08:00:18;12.00;99.90
11826;DHT22;5970;48.094;11.496;2022-10-23T08:02:45;12.10;99.90
11826;DHT22;5970;48.094;11.496;2022-10-23T08:05:11;12.10;99.90
11826;DHT22;5970;48.094;11.496;2022-10-23T08:07:38;12.30;99.90
11826;DHT22;5970;48.094;11.496;2022-10-23T08:10:06;12.30;99.90
11826;DHT22;5970;48.094;11.496;2022-10-23T08:12:32;12.40;99.90
11826;DHT22;5970;48.094;11.496;2022-10-23T08:14:59;12.50;99.90
11826;DHT22;5970;48.094;11.496;2022-10-23T08:17:26;12.80;99.90
11826;DHT22;5970;48.094;11.496;2022-10-23T08:19:53;12.80;99.90
11826;DHT22;5970;48.094;11.496;2022-10-23T08:22:20;13.20;99.90
11826;DHT22;5970;48.094;11.496;2022-10-23T08:24:47;13.60;99.90
11826;DHT22;5970;48.094;11.496;2022-10-23T08:27:13;13.70;99.90
11826;DHT22;5970;48.094;11.496;2022-10-23T08:29:40;13.90;99.90
11826;DHT22;5970;48.094;11.496;2022-10-23T08:32:06;14.20;99.90
11826;DHT22;5970;48.094;11.496;2022-10-23T08:34:33;14.50;99.90
11826;DHT22;5970;48.094;11.496;2022-10-23T08:37:00;14.80;99.90
11826;DHT22;5970;48.094;11.496;2022-10-23T08:39:26;15.20;99.90
11826;DHT22;5970;48.094;11.496;2022-10-23T08:41:53;15.40;99.90
11826;DHT22;5970;48.094;11.496;2022-10-23T08:44:21;15.90;99.90
11826;DHT22;5970;48.094;11.496;2022-10-23T08:46:54;16.20;99.90
11826;DHT22;5970;48.094;11.496;2022-10-23T08:52:11;17.00;99.90
11826;DHT22;5970;48.094;11.496;2022-10-23T08:55:22;17.80;99.90
11826;DHT22;5970;48.094;11.496;2022-10-23T08:57:31;18.40;98.90
11826;DHT22;5970;48.094;11.496;2022-10-23T09:00:07;19.00;98.10
11826;DHT22;5970;48.094;11.496;2022-10-23T09:02:55;19.50;96.90
11826;DHT22;5970;48.094;11.496;2022-10-23T09:07:53;20.70;95.00
11826;DHT22;5970;48.094;11.496;2022-10-23T09:15:44;20.40;94.10
11826;DHT22;5970;48.094;11.496;2022-10-23T09:18:14;20.40;93.90
11826;DHT22;5970;48.094;11.496;2022-10-23T09:20:41;20.30;94.30
11826;DHT22;5970;48.094;11.496;2022-10-23T09:23:16;20.10;94.50
11826;DHT22;5970;48.094;11.496;2022-10-23T09:25:44;19.90;94.40
11826;DHT22;5970;48.094;11.496;2022-10-23T09:28:21;19.60;94.70
11826;DHT22;5970;48.094;11.496;2022-10-23T09:30:48;19.50;94.90
11826;DHT22;5970;48.094;11.496;2022-10-23T09:35:52;19.20;95.50
11826;DHT22;5970;48.094;11.496;2022-10-23T09:38:29;19.30;95.70
11826;DHT22;5970;48.094;11.496;2022-10-23T09:41:16;19.30;95.80
11826;DHT22;5970;48.094;11.496;2022-10-23T09:43:43;19.10;96.20
11826;DHT22;5970;48.094;11.496;2022-10-23T09:46:10;19.10;96.10
11826;DHT22;5970;48.094;11.496;2022-10-23T09:48:37;19.10;96.00
11826;DHT22;5970;48.094;11.496;2022-10-23T09:51:20;18.80;95.80
11826;DHT22;5970;48.094;11.496;2022-10-23T09:59:32;18.90;97.50
11826;DHT22;5970;48.094;11.496;2022-10-23T10:01:45;18.70;96.70
11826;DHT22;5970;48.094;11.496;2022-10-23T10:04:12;18.60;96.80
11826;DHT22;5970;48.094;11.496;2022-10-23T10:06:38;18.80;97.50
11826;DHT22;5970;48.094;11.496;2022-10-23T10:09:12;18.80;97.10
11826;DHT22;5970;48.094;11.496;2022-10-23T10:26:58;19.40;96.80
11826;DHT22;5970;48.094;11.496;2022-10-23T10:29:47;19.70;96.80
11826;DHT22;5970;48.094;11.496;2022-10-23T10:32:23;20.00;96.70
11826;DHT22;5970;48.094;11.496;2022-10-23T10:45:31;27.70;86.60
11826;DHT22;5970;48.094;11.496;2022-10-23T10:48:06;29.00;80.90
11826;DHT22;5970;48.094;11.496;2022-10-23T10:53:17;31.20;71.40
11826;DHT22;5970;48.094;11.496;2022-10-23T10:55:49;31.70;68.00
11826;DHT22;5970;48.094;11.496;2022-10-23T10:58:39;31.70;66.20
11826;DHT22;5970;48.094;11.496;2022-10-23T11:01:12;31.30;63.60
11826;DHT22;5970;48.094;11.496;2022-10-23T11:03:47;31.50;64.00
11826;DHT22;5970;48.094;11.496;2022-10-23T11:06:18;31.70;62.70
11826;DHT22;5970;48.094;11.496;2022-10-23T11:08:45;31.80;63.00
11826;DHT22;5970;48.094;11.496;2022-10-23T11:11:25;31.60;62.10
11826;DHT22;5970;48.094;11.496;2022-10-23T11:13:54;31.10;62.40
11826;DHT22;5970;48.094;11.496;2022-10-23T11:16:22;30.40;61.60
11826;DHT22;5970;48.094;11.496;2022-10-23T11:18:54;29.90;61.50
11826;DHT22;5970;48.094;11.496;2022-10-23T11:29:17;29.60;64.60
11826;DHT22;5970;48.094;11.496;2022-10-23T11:32:05;29.30;64.50
11826;DHT22;5970;48.094;11.496;2022-10-23T11:37:02;28.80;67.10
11826;DHT22;5970;48.094;11.496;2022-10-23T11:39:34;28.70;68.80
11826;DHT22;5970;48.094;11.496;2022-10-23T11:47:54;28.50;67.90
11826;DHT22;5970;48.094;11.496;2022-10-23T11:53:08;28.90;69.60
11826;DHT22;5970;48.094;11.496;2022-10-23T11:55:55;28.70;69.70
11826;DHT22;5970;48.094;11.496;2022-10-23T11:58:23;28.80;70.60
11826;DHT22;5970;48.094;11.496;2022-10-23T12:00:58;28.70;68.40
11826;DHT22;5970;48.094;11.496;2022-10-23T12:03:38;29.10;70.00
11826;DHT22;5970;48.094;11.496;2022-10-23T12:06:06;29.30;69.60
11826;DHT22;5970;48.094;11.496;2022-10-23T12:08:34;28.90;67.90
11826;DHT22;5970;48.094;11.496;2022-10-23T12:11:01;28.80;68.70
11826;DHT22;5970;48.094;11.496;2022-10-23T12:16:04;28.90;69.70
11826;DHT22;5970;48.094;11.496;2022-10-23T12:18:32;29.10;70.10
11826;DHT22;5970;48.094;11.496;2022-10-23T12:21:17;29.30;68.50
11826;DHT22;5970;48.094;11.496;2022-10-23T12:26:22;29.80;67.90
11826;DHT22;5970;48.094;11.496;2022-10-23T12:31:49;28.90;69.40
11826;DHT22;5970;48.094;11.496;2022-10-23T12:39:25;27.50;72.60
11826;DHT22;5970;48.094;11.496;2022-10-23T12:41:52;26.70;72.60
11826;DHT22;5970;48.094;11.496;2022-10-23T12:44:19;26.50;73.80
11826;DHT22;5970;48.094;11.496;2022-10-23T12:46:47;26.30;76.10
11826;DHT22;5970;48.094;11.496;2022-10-23T12:49:19;25.90;76.90
11826;DHT22;5970;48.094;11.496;2022-10-23T12:51:56;25.40;78.30
11826;DHT22;5970;48.094;11.496;2022-10-23T12:54:23;25.30;79.50
11826;DHT22;5970;48.094;11.496;2022-10-23T12:56:50;25.30;79.40
11826;DHT22;5970;48.094;11.496;2022-10-23T12:59:25;25.20;80.40
11826;DHT22;5970;48.094;11.496;2022-10-23T13:01:53;25.20;80.90
11826;DHT22;5970;48.094;11.496;2022-10-23T13:04:33;25.20;79.60
11826;DHT22;5970;48.094;11.496;2022-10-23T13:07:01;25.20;79.50
11826;DHT22;5970;48.094;11.496;2022-10-23T13:09:35;25.20;80.60
11826;DHT22;5970;48.094;11.496;2022-10-23T13:12:03;25.30;81.40
11826;DHT22;5970;48.094;11.496;2022-10-23T13:17:05;25.20;79.10
11826;DHT22;5970;48.094;11.496;2022-10-23T13:19:33;25.20;80.50
11826;DHT22;5970;48.094;11.496;2022-10-23T13:22:00;25.20;80.50
11826;DHT22;5970;48.094;11.496;2022-10-23T13:24:28;25.30;80.90
11826;DHT22;5970;48.094;11.496;2022-10-23T13:26:56;25.50;81.20
11826;DHT22;5970;48.094;11.496;2022-10-23T13:31:52;25.60;79.70
11826;DHT22;5970;48.094;11.496;2022-10-23T13:34:28;25.50;80.30
11826;DHT22;5970;48.094;11.496;2022-10-23T13:36:57;25.60;81.30
11826;DHT22;5970;48.094;11.496;2022-10-23T13:39:25;25.50;81.40
11826;DHT22;5970;48.094;11.496;2022-10-23T13:41:52;25.50;81.60
11826;DHT22;5970;48.094;11.496;2022-10-23T13:44:20;25.10;81.40
11826;DHT22;5970;48.094;11.496;2022-10-23T13:46:47;25.10;81.80
11826;DHT22;5970;48.094;11.496;2022-10-23T13:49:14;25.10;81.80
11826;DHT22;5970;48.094;11.496;2022-10-23T13:51:46;25.00;82.40
11826;DHT22;5970;48.094;11.496;2022-10-23T13:54:15;24.60;82.40
11826;DHT22;5970;48.094;11.496;2022-10-23T13:56:42;24.60;83.20
11826;DHT22;5970;48.094;11.496;2022-10-23T13:59:09;24.50;83.70
11826;DHT22;5970;48.094;11.496;2022-10-23T14:01:36;24.50;83.60
11826;DHT22;5970;48.094;11.496;2022-10-23T14:04:03;24.40;84.20
11826;DHT22;5970;48.094;11.496;2022-10-23T14:06:30;24.40;84.40
11826;DHT22;5970;48.094;11.496;2022-10-23T14:08:57;24.40;84.30
11826;DHT22;5970;48.094;11.496;2022-10-23T14:11:24;24.40;85.00
11826;DHT22;5970;48.094;11.496;2022-10-23T14:13:51;24.40;83.60
11826;DHT22;5970;48.094;11.496;2022-10-23T14:16:18;24.40;84.30
11826;DHT22;5970;48.094;11.496;2022-10-23T14:18:48;24.30;84.90
11826;DHT22;5970;48.094;11.496;2022-10-23T14:21:16;24.30;84.00
11826;DHT22;5970;48.094;11.496;2022-10-23T14:23:43;24.40;84.90
11826;DHT22;5970;48.094;11.496;2022-10-23T14:26:13;24.30;84.30
11826;DHT22;5970;48.094;11.496;2022-10-23T14:28:41;24.30;85.00
11826;DHT22;5970;48.094;11.496;2022-10-23T14:31:09;24.10;84.60
11826;DHT22;5970;48.094;11.496;2022-10-23T14:33:35;23.80;84.80
11826;DHT22;5970;48.094;11.496;2022-10-23T14:36:02;23.70;85.20
11826;DHT22;5970;48.094;11.496;2022-10-23T14:38:29;23.60;86.00
11826;DHT22;5970;48.094;11.496;2022-10-23T14:40:56;23.50;86.60
11826;DHT22;5970;48.094;11.496;2022-10-23T14:43:22;23.40;87.90
11826;DHT22;5970;48.094;11.496;2022-10-23T14:45:49;23.20;88.40
11826;DHT22;5970;48.094;11.496;2022-10-23T14:48:16;23.10;88.40
11826;DHT22;5970;48.094;11.496;2022-10-23T14:50:44;23.00;89.20
11826;DHT22;5970;48.094;11.496;2022-10-23T14:53:11;22.80;89.70
11826;DHT22;5970;48.094;11.496;2022-10-23T14:55:38;22.60;90.00
11826;DHT22;5970;48.094;11.496;2022-10-23T14:58:05;22.50;90.70
11826;DHT22;5970;48.094;11.496;2022-10-23T15:00:32;22.40;91.10
11826;DHT22;5970;48.094;11.496;2022-10-23T15:02:58;22.30;91.60
11826;DHT22;5970;48.094;11.496;2022-10-23T15:05:25;22.10;91.40
11826;DHT22;5970;48.094;11.496;2022-10-23T15:07:53;22.00;91.60
11826;DHT22;5970;48.094;11.496;2022-10-23T15:10:20;21.90;92.10
11826;DHT22;5970;48.094;11.496;2022-10-23T15:12:46;21.80;92.30
11826;DHT22;5970;48.094;11.496;2022-10-23T15:15:13;21.60;92.80
11826;DHT22;5970;48.094;11.496;2022-10-23T15:17:40;21.50;93.30
11826;DHT22;5970;48.094;11.496;2022-10-23T15:20:07;21.40;93.60
11826;DHT22;5970;48.094;11.496;2022-10-23T15:22:34;21.30;93.60
11826;DHT22;5970;48.094;11.496;2022-10-23T15:25:01;21.20;94.10
11826;DHT22;5970;48.094;11.496;2022-10-23T15:27:27;20.90;94.50
11826;DHT22;5970;48.094;11.496;2022-10-23T15:29:54;20.80;94.80
11826;DHT22;5970;48.094;11.496;2022-10-23T15:32:21;20.70;94.80
11826;DHT22;5970;48.094;11.496;2022-10-23T15:34:47;20.60;95.30
11826;DHT22;5970;48.094;11.496;2022-10-23T15:37:15;20.50;95.50
11826;DHT22;5970;48.094;11.496;2022-10-23T15:39:41;20.60;95.70
11826;DHT22;5970;48.094;11.496;2022-10-23T15:42:08;20.20;95.50
11826;DHT22;5970;48.094;11.496;2022-10-23T15:44:35;20.10;96.00
11826;DHT22;5970;48.094;11.496;2022-10-23T15:47:02;20.00;96.40
11826;DHT22;5970;48.094;11.496;2022-10-23T15:49:29;19.90;96.70
11826;DHT22;5970;48.094;11.496;2022-10-23T15:51:55;19.80;96.90
11826;DHT22;5970;48.094;11.496;2022-10-23T15:54:22;19.70;97.20
11826;DHT22;5970;48.094;11.496;2022-10-23T15:56:53;19.60;97.40
11826;DHT22;5970;48.094;11.496;2022-10-23T15:59:21;19.50;97.60
11826;DHT22;5970;48.094;11.496;2022-10-23T16:01:48;19.40;97.80
11826;DHT22;5970;48.094;11.496;2022-10-23T16:04:15;19.30;98.20
11826;DHT22;5970;48.094;11.496;2022-10-23T16:06:42;19.20;98.50
11826;DHT22;5970;48.094;11.496;2022-10-23T16:09:09;19.10;98.60
11826;DHT22;5970;48.094;11.496;2022-10-23T16:11:36;19.00;98.90
11826;DHT22;5970;48.094;11.496;2022-10-23T16:14:03;18.90;99.00
11826;DHT22;5970;48.094;11.496;2022-10-23T16:16:31;18.80;99.50
11826;DHT22;5970;48.094;11.496;2022-10-23T16:18:58;18.80;99.70
11826;DHT22;5970;48.094;11.496;2022-10-23T16:21:26;18.50;99.80
11826;DHT22;5970;48.094;11.496;2022-10-23T16:23:57;18.50;99.90
11826;DHT22;5970;48.094;11.496;2022-10-23T16:26:24;18.50;99.90
11826;DHT22;5970;48.094;11.496;2022-10-23T16:28:51;18.40;99.90
11826;DHT22;5970;48.094;11.496;2022-10-23T16:31:18;18.30;99.90
11826;DHT22;5970;48.094;11.496;2022-10-23T16:33:46;18.20;99.90
11826;DHT22;5970;48.094;11.496;2022-10-23T16:36:13;18.10;99.90
11826;DHT22;5970;48.094;11.496;2022-10-23T16:38:39;18.60;99.90
11826;DHT22;5970;48.094;11.496;2022-10-23T16:41:06;18.00;99.90
11826;DHT22;5970;48.094;11.496;2022-10-23T16:43:33;18.00;99.90
11826;DHT22;5970;48.094;11.496;2022-10-23T16:46:07;17.90;99.90
11826;DHT22;5970;48.094;11.496;2022-10-23T16:48:36;17.80;99.90
11826;DHT22;5970;48.094;11.496;2022-10-23T16:51:04;17.70;99.90
11826;DHT22;5970;48.094;11.496;2022-10-23T16:53:30;17.70;99.90
11826;DHT22;5970;48.094;11.496;2022-10-23T16:55:57;17.60;99.90
11826;DHT22;5970;48.094;11.496;2022-10-23T16:58:24;17.60;99.90
11826;DHT22;5970;48.094;11.496;2022-10-23T17:00:55;17.60;99.90
11826;DHT22;5970;48.094;11.496;2022-10-23T17:03:22;17.60;99.90
11826;DHT22;5970;48.094;11.496;2022-10-23T17:05:49;17.50;99.90
11826;DHT22;5970;48.094;11.496;2022-10-23T17:08:15;17.50;99.90
11826;DHT22;5970;48.094;11.496;2022-10-23T17:10:42;17.40;99.90
11826;DHT22;5970;48.094;11.496;2022-10-23T17:13:09;17.40;99.90
11826;DHT22;5970;48.094;11.496;2022-10-23T17:15:35;17.30;99.90
11826;DHT22;5970;48.094;11.496;2022-10-23T17:18:02;17.20;99.90
11826;DHT22;5970;48.094;11.496;2022-10-23T17:20:28;17.20;99.90
11826;DHT22;5970;48.094;11.496;2022-10-23T17:22:55;17.10;99.90
11826;DHT22;5970;48.094;11.496;2022-10-23T17:25:21;17.10;99.90
11826;DHT22;5970;48.094;11.496;2022-10-23T17:27:48;17.00;99.90
11826;DHT22;5970;48.094;11.496;2022-10-23T17:30:15;17.10;99.90
11826;DHT22;5970;48.094;11.496;2022-10-23T17:32:41;16.90;99.90
11826;DHT22;5970;48.094;11.496;2022-10-23T17:35:08;16.90;99.90
11826;DHT22;5970;48.094;11.496;2022-10-23T17:37:35;16.90;99.90
11826;DHT22;5970;48.094;11.496;2022-10-23T17:40:02;16.90;99.90
11826;DHT22;5970;48.094;11.496;2022-10-23T17:42:28;16.90;99.90